sensor_id;sensor_type;location;lat;lon;timestamp;P1;durP1;ratioP1;P2;durP2;ratioP2
57573;SDS011;63722;48.858;21.906;2022-10-28T00:00:00;0.77;;;0.77;;
57573;SDS011;63722;48.858;21.906;2022-10-28T00:02:26;0.70;;;0.70;;
57573;SDS011;63722;48.858;21.906;2022-10-28T00:04:51;0.82;;;0.82;;
57573;SDS011;63722;48.858;21.906;2022-10-28T00:07:17;0.95;;;0.95;;
57573;SDS011;63722;48.858;21.906;2022-10-28T00:09:42;0.80;;;0.80;;
57573;SDS011;63722;48.858;21.906;2022-10-28T00:12:07;0.88;;;0.80;;
57573;SDS011;63722;48.858;21.906;2022-10-28T00:14:33;0.70;;;0.70;;
57573;SDS011;63722;48.858;21.906;2022-10-28T00:16:58;0.85;;;0.85;;
57573;SDS011;63722;48.858;21.906;2022-10-28T00:19:24;1.27;;;0.90;;
57573;SDS011;63722;48.858;21.906;2022-10-28T00:21:49;0.77;;;0.77;;
57573;SDS011;63722;48.858;21.906;2022-10-28T00:24:14;0.88;;;0.88;;
57573;SDS011;63722;48.858;21.906;2022-10-28T00:26:40;0.80;;;0.80;;
57573;SDS011;63722;48.858;21.906;2022-10-28T00:29:08;1.00;;;1.00;;
57573;SDS011;63722;48.858;21.906;2022-10-28T00:31:36;0.70;;;0.70;;
57573;SDS011;63722;48.858;21.906;2022-10-28T00:34:03;0.80;;;0.80;;
57573;SDS011;63722;48.858;21.906;2022-10-28T00:36:32;0.70;;;0.70;;
57573;SDS011;63722;48.858;21.906;2022-10-28T00:38:59;0.70;;;0.70;;
57573;SDS011;63722;48.858;21.906;2022-10-28T00:41:31;0.82;;;0.82;;
57573;SDS011;63722;48.858;21.906;2022-10-28T00:43:59;3.70;;;0.90;;
57573;SDS011;63722;48.858;21.906;2022-10-28T00:46:37;0.90;;;0.90;;
57573;SDS011;63722;48.858;21.906;2022-10-28T00:49:13;0.98;;;0.98;;
57573;SDS011;63722;48.858;21.906;2022-10-28T00:51:40;0.85;;;0.85;;
57573;SDS011;63722;48.858;21.906;2022-10-28T00:54:08;0.70;;;0.70;;
57573;SDS011;63722;48.858;21.906;2022-10-28T00:56:36;0.90;;;0.90;;
57573;SDS011;63722;48.858;21.906;2022-10-28T00:59:05;0.80;;;0.80;;
57573;SDS011;63722;48.858;21.906;2022-10-28T01:01:35;0.95;;;0.95;;
57573;SDS011;63722;48.858;21.906;2022-10-28T01:04:01;1.05;;;1.05;;
57573;SDS011;63722;48.858;21.906;2022-10-28T01:06:27;1.00;;;0.90;;
57573;SDS011;63722;48.858;21.906;2022-10-28T01:08:53;0.80;;;0.80;;
57573;SDS011;63722;48.858;21.906;2022-10-28T01:11:22;0.88;;;0.88;;
57573;SDS011;63722;48.858;21.906;2022-10-28T01:14:06;0.68;;;0.68;;
57573;SDS011;63722;48.858;21.906;2022-10-28T01:17:22;0.80;;;0.80;;
57573;SDS011;63722;48.858;21.906;2022-10-28T01:22:54;0.93;;;0.85;;
57573;SDS011;63722;48.858;21.906;2022-10-28T01:33:42;0.70;;;0.70;;
57573;SDS011;63722;48.858;21.906;2022-10-28T01:36:19;0.80;;;0.80;;
57573;SDS011;63722;48.858;21.906;2022-10-28T01:38:52;0.90;;;0.90;;
57573;SDS011;63722;48.858;21.906;2022-10-28T01:46:50;0.75;;;0.75;;
57573;SDS011;63722;48.858;21.906;2022-10-28T01:49:52;0.75;;;0.75;;
57573;SDS011;63722;48.858;21.906;2022-10-28T01:52:23;0.93;;;0.93;;
57573;SDS011;63722;48.858;21.906;2022-10-28T01:54:56;0.88;;;0.88;;
57573;SDS011;63722;48.858;21.906;2022-10-28T01:57:26;0.85;;;0.85;;
57573;SDS011;63722;48.858;21.906;2022-10-28T01:59:54;1.25;;;0.90;;
57573;SDS011;63722;48.858;21.906;2022-10-28T02:02:21;0.85;;;0.80;;
57573;SDS011;63722;48.858;21.906;2022-10-28T02:04:46;0.90;;;0.90;;
57573;SDS011;63722;48.858;21.906;2022-10-28T02:07:12;0.80;;;0.80;;
57573;SDS011;63722;48.858;21.906;2022-10-28T02:09:54;1.00;;;1.00;;
57573;SDS011;63722;48.858;21.906;2022-10-28T02:12:30;0.90;;;0.90;;
57573;SDS011;63722;48.858;21.906;2022-10-28T02:17:52;0.88;;;0.88;;
57573;SDS011;63722;48.858;21.906;2022-10-28T02:23:36;0.95;;;0.95;;
57573;SDS011;63722;48.858;21.906;2022-10-28T02:25:45;0.90;;;0.90;;
57573;SDS011;63722;48.858;21.906;2022-10-28T02:28:16;0.90;;;0.90;;
57573;SDS011;63722;48.858;21.906;2022-10-28T02:30:54;1.17;;;0.80;;
57573;SDS011;63722;48.858;21.906;2022-10-28T02:33:27;1.00;;;0.90;;
57573;SDS011;63722;48.858;21.906;2022-10-28T02:36:00;0.98;;;0.93;;
57573;SDS011;63722;48.858;21.906;2022-10-28T02:38:35;0.80;;;0.80;;
57573;SDS011;63722;48.858;21.906;2022-10-28T02:41:09;0.75;;;0.75;;
57573;SDS011;63722;48.858;21.906;2022-10-28T02:43:40;0.90;;;0.90;;
57573;SDS011;63722;48.858;21.906;2022-10-28T02:46:08;0.98;;;0.98;;
57573;SDS011;63722;48.858;21.906;2022-10-28T02:48:39;0.98;;;0.98;;
57573;SDS011;63722;48.858;21.906;2022-10-28T02:51:10;0.95;;;0.95;;
57573;SDS011;63722;48.858;21.906;2022-10-28T02:53:44;0.90;;;0.90;;
57573;SDS011;63722;48.858;21.906;2022-10-28T02:56:20;0.90;;;0.90;;
57573;SDS011;63722;48.858;21.906;2022-10-28T02:58:46;1.17;;;1.08;;
57573;SDS011;63722;48.858;21.906;2022-10-28T03:01:12;0.98;;;0.90;;
57573;SDS011;63722;48.858;21.906;2022-10-28T03:03:37;0.73;;;0.73;;
57573;SDS011;63722;48.858;21.906;2022-10-28T03:06:03;1.08;;;1.08;;
57573;SDS011;63722;48.858;21.906;2022-10-28T03:08:29;0.77;;;0.77;;
57573;SDS011;63722;48.858;21.906;2022-10-28T03:10:54;1.00;;;0.90;;
57573;SDS011;63722;48.858;21.906;2022-10-28T03:13:20;0.90;;;0.90;;
57573;SDS011;63722;48.858;21.906;2022-10-28T03:15:45;0.85;;;0.85;;
57573;SDS011;63722;48.858;21.906;2022-10-28T03:18:11;1.38;;;1.00;;
57573;SDS011;63722;48.858;21.906;2022-10-28T03:20:36;0.90;;;0.90;;
57573;SDS011;63722;48.858;21.906;2022-10-28T03:23:01;0.90;;;0.90;;
57573;SDS011;63722;48.858;21.906;2022-10-28T03:25:27;0.85;;;0.80;;
57573;SDS011;63722;48.858;21.906;2022-10-28T03:27:52;0.90;;;0.90;;
57573;SDS011;63722;48.858;21.906;2022-10-28T03:30:18;1.00;;;1.00;;
57573;SDS011;63722;48.858;21.906;2022-10-28T03:32:43;1.20;;;1.20;;
57573;SDS011;63722;48.858;21.906;2022-10-28T03:35:09;0.95;;;0.95;;
57573;SDS011;63722;48.858;21.906;2022-10-28T03:37:34;0.85;;;0.85;;
57573;SDS011;63722;48.858;21.906;2022-10-28T03:40:00;0.80;;;0.80;;
57573;SDS011;63722;48.858;21.906;2022-10-28T03:42:27;0.80;;;0.80;;
57573;SDS011;63722;48.858;21.906;2022-10-28T03:44:52;0.85;;;0.85;;
57573;SDS011;63722;48.858;21.906;2022-10-28T03:47:18;1.10;;;1.10;;
57573;SDS011;63722;48.858;21.906;2022-10-28T03:49:43;1.30;;;0.98;;
57573;SDS011;63722;48.858;21.906;2022-10-28T03:52:09;1.10;;;1.10;;
57573;SDS011;63722;48.858;21.906;2022-10-28T03:54:34;0.70;;;0.70;;
57573;SDS011;63722;48.858;21.906;2022-10-28T03:57:00;1.05;;;1.02;;
57573;SDS011;63722;48.858;21.906;2022-10-28T03:59:25;0.90;;;0.90;;
57573;SDS011;63722;48.858;21.906;2022-10-28T04:01:50;0.82;;;0.82;;
57573;SDS011;63722;48.858;21.906;2022-10-28T04:04:16;0.90;;;0.90;;
57573;SDS011;63722;48.858;21.906;2022-10-28T04:06:41;1.00;;;1.00;;
57573;SDS011;63722;48.858;21.906;2022-10-28T04:09:06;1.10;;;1.10;;
57573;SDS011;63722;48.858;21.906;2022-10-28T04:11:32;0.82;;;0.82;;
57573;SDS011;63722;48.858;21.906;2022-10-28T04:13:57;0.95;;;0.95;;
57573;SDS011;63722;48.858;21.906;2022-10-28T04:16:23;1.15;;;1.05;;
57573;SDS011;63722;48.858;21.906;2022-10-28T04:18:48;0.85;;;0.85;;
57573;SDS011;63722;48.858;21.906;2022-10-28T04:21:13;1.50;;;1.00;;
57573;SDS011;63722;48.858;21.906;2022-10-28T04:23:39;1.00;;;1.00;;
57573;SDS011;63722;48.858;21.906;2022-10-28T04:26:04;1.08;;;1.08;;
57573;SDS011;63722;48.858;21.906;2022-10-28T04:28:29;1.08;;;1.08;;
57573;SDS011;63722;48.858;21.906;2022-10-28T04:30:55;1.10;;;0.98;;
57573;SDS011;63722;48.858;21.906;2022-10-28T04:33:20;0.90;;;0.90;;
57573;SDS011;63722;48.858;21.906;2022-10-28T04:35:45;0.80;;;0.80;;
57573;SDS011;63722;48.858;21.906;2022-10-28T04:38:11;2.78;;;1.00;;
57573;SDS011;63722;48.858;21.906;2022-10-28T04:40:38;1.00;;;1.00;;
57573;SDS011;63722;48.858;21.906;2022-10-28T04:43:03;0.80;;;0.80;;
57573;SDS011;63722;48.858;21.906;2022-10-28T04:45:30;0.90;;;0.90;;
57573;SDS011;63722;48.858;21.906;2022-10-28T04:47:56;0.98;;;0.98;;
57573;SDS011;63722;48.858;21.906;2022-10-28T04:50:25;1.00;;;1.00;;
57573;SDS011;63722;48.858;21.906;2022-10-28T04:52:51;0.80;;;0.77;;
57573;SDS011;63722;48.858;21.906;2022-10-28T04:55:16;1.02;;;1.02;;
57573;SDS011;63722;48.858;21.906;2022-10-28T04:57:42;1.30;;;1.20;;
57573;SDS011;63722;48.858;21.906;2022-10-28T05:00:08;1.10;;;1.10;;
57573;SDS011;63722;48.858;21.906;2022-10-28T05:02:34;1.20;;;1.20;;
57573;SDS011;63722;48.858;21.906;2022-10-28T05:04:59;4.85;;;2.30;;
57573;SDS011;63722;48.858;21.906;2022-10-28T05:07:27;5.60;;;3.35;;
57573;SDS011;63722;48.858;21.906;2022-10-28T05:09:53;3.80;;;3.60;;
57573;SDS011;63722;48.858;21.906;2022-10-28T05:12:18;4.82;;;3.50;;
57573;SDS011;63722;48.858;21.906;2022-10-28T05:14:44;3.08;;;2.85;;
57573;SDS011;63722;48.858;21.906;2022-10-28T05:17:09;3.72;;;3.33;;
57573;SDS011;63722;48.858;21.906;2022-10-28T05:19:35;3.50;;;3.30;;
57573;SDS011;63722;48.858;21.906;2022-10-28T05:22:01;5.65;;;2.78;;
57573;SDS011;63722;48.858;21.906;2022-10-28T05:24:26;9.88;;;2.65;;
57573;SDS011;63722;48.858;21.906;2022-10-28T05:26:51;16.60;;;2.78;;
57573;SDS011;63722;48.858;21.906;2022-10-28T05:29:17;3.35;;;2.45;;
57573;SDS011;63722;48.858;21.906;2022-10-28T05:31:43;5.15;;;2.40;;
57573;SDS011;63722;48.858;21.906;2022-10-28T05:34:09;4.70;;;2.53;;
57573;SDS011;63722;48.858;21.906;2022-10-28T05:36:34;3.92;;;2.58;;
57573;SDS011;63722;48.858;21.906;2022-10-28T05:39:00;6.22;;;2.55;;
57573;SDS011;63722;48.858;21.906;2022-10-28T05:41:25;2.50;;;2.30;;
57573;SDS011;63722;48.858;21.906;2022-10-28T05:43:51;8.38;;;2.35;;
57573;SDS011;63722;48.858;21.906;2022-10-28T05:46:17;1.90;;;1.80;;
57573;SDS011;63722;48.858;21.906;2022-10-28T05:48:42;2.28;;;2.08;;
57573;SDS011;63722;48.858;21.906;2022-10-28T05:51:08;2.10;;;2.00;;
57573;SDS011;63722;48.858;21.906;2022-10-28T05:53:34;2.88;;;2.30;;
57573;SDS011;63722;48.858;21.906;2022-10-28T05:56:00;5.20;;;2.50;;
57573;SDS011;63722;48.858;21.906;2022-10-28T05:58:25;4.18;;;1.98;;
57573;SDS011;63722;48.858;21.906;2022-10-28T06:00:50;2.42;;;2.22;;
57573;SDS011;63722;48.858;21.906;2022-10-28T06:03:16;5.43;;;2.58;;
57573;SDS011;63722;48.858;21.906;2022-10-28T06:05:42;14.50;;;2.30;;
57573;SDS011;63722;48.858;21.906;2022-10-28T06:08:09;5.80;;;2.25;;
57573;SDS011;63722;48.858;21.906;2022-10-28T06:10:36;4.85;;;2.65;;
57573;SDS011;63722;48.858;21.906;2022-10-28T06:13:01;3.50;;;2.25;;
57573;SDS011;63722;48.858;21.906;2022-10-28T06:15:27;4.07;;;2.08;;
57573;SDS011;63722;48.858;21.906;2022-10-28T06:17:52;10.40;;;2.50;;
57573;SDS011;63722;48.858;21.906;2022-10-28T06:20:17;5.30;;;2.45;;
57573;SDS011;63722;48.858;21.906;2022-10-28T06:22:50;4.82;;;2.30;;
57573;SDS011;63722;48.858;21.906;2022-10-28T06:25:17;6.13;;;2.60;;
57573;SDS011;63722;48.858;21.906;2022-10-28T06:27:43;4.80;;;2.13;;
57573;SDS011;63722;48.858;21.906;2022-10-28T06:30:09;2.70;;;2.53;;
57573;SDS011;63722;48.858;21.906;2022-10-28T06:32:37;4.25;;;2.28;;
57573;SDS011;63722;48.858;21.906;2022-10-28T06:35:03;2.20;;;2.10;;
57573;SDS011;63722;48.858;21.906;2022-10-28T06:37:29;2.33;;;2.13;;
57573;SDS011;63722;48.858;21.906;2022-10-28T06:39:54;2.70;;;2.50;;
57573;SDS011;63722;48.858;21.906;2022-10-28T06:42:20;10.77;;;2.38;;
57573;SDS011;63722;48.858;21.906;2022-10-28T06:44:45;2.33;;;2.13;;
57573;SDS011;63722;48.858;21.906;2022-10-28T06:47:11;4.22;;;2.40;;
57573;SDS011;63722;48.858;21.906;2022-10-28T06:49:36;2.95;;;2.03;;
57573;SDS011;63722;48.858;21.906;2022-10-28T06:52:02;2.20;;;2.05;;
57573;SDS011;63722;48.858;21.906;2022-10-28T06:54:28;2.17;;;2.08;;
57573;SDS011;63722;48.858;21.906;2022-10-28T06:56:53;5.57;;;2.20;;
57573;SDS011;63722;48.858;21.906;2022-10-28T06:59:18;2.58;;;2.10;;
57573;SDS011;63722;48.858;21.906;2022-10-28T07:01:44;2.00;;;1.90;;
57573;SDS011;63722;48.858;21.906;2022-10-28T07:04:10;2.28;;;1.88;;
57573;SDS011;63722;48.858;21.906;2022-10-28T07:06:37;2.53;;;2.30;;
57573;SDS011;63722;48.858;21.906;2022-10-28T07:09:03;2.63;;;2.40;;
57573;SDS011;63722;48.858;21.906;2022-10-28T07:11:28;4.70;;;2.20;;
57573;SDS011;63722;48.858;21.906;2022-10-28T07:13:53;4.40;;;2.30;;
57573;SDS011;63722;48.858;21.906;2022-10-28T07:16:19;3.33;;;2.30;;
57573;SDS011;63722;48.858;21.906;2022-10-28T07:18:44;5.47;;;2.38;;
57573;SDS011;63722;48.858;21.906;2022-10-28T07:21:09;7.40;;;2.20;;
57573;SDS011;63722;48.858;21.906;2022-10-28T07:23:35;2.05;;;1.95;;
57573;SDS011;63722;48.858;21.906;2022-10-28T07:26:00;2.58;;;1.92;;
57573;SDS011;63722;48.858;21.906;2022-10-28T07:28:26;2.33;;;2.05;;
57573;SDS011;63722;48.858;21.906;2022-10-28T07:30:52;4.35;;;2.33;;
57573;SDS011;63722;48.858;21.906;2022-10-28T07:33:17;2.97;;;2.15;;
57573;SDS011;63722;48.858;21.906;2022-10-28T07:35:43;6.68;;;2.10;;
57573;SDS011;63722;48.858;21.906;2022-10-28T07:38:09;2.50;;;1.92;;
57573;SDS011;63722;48.858;21.906;2022-10-28T07:40:34;2.95;;;1.83;;
57573;SDS011;63722;48.858;21.906;2022-10-28T07:43:00;9.68;;;2.22;;
57573;SDS011;63722;48.858;21.906;2022-10-28T07:45:25;3.95;;;1.98;;
57573;SDS011;63722;48.858;21.906;2022-10-28T07:47:51;2.45;;;2.15;;
57573;SDS011;63722;48.858;21.906;2022-10-28T07:50:17;2.58;;;2.38;;
57573;SDS011;63722;48.858;21.906;2022-10-28T07:52:42;4.15;;;2.35;;
57573;SDS011;63722;48.858;21.906;2022-10-28T07:55:08;2.25;;;2.10;;
57573;SDS011;63722;48.858;21.906;2022-10-28T07:57:34;6.07;;;2.58;;
57573;SDS011;63722;48.858;21.906;2022-10-28T08:00:00;5.35;;;2.20;;
57573;SDS011;63722;48.858;21.906;2022-10-28T08:02:26;3.28;;;2.15;;
57573;SDS011;63722;48.858;21.906;2022-10-28T08:04:51;2.38;;;2.17;;
57573;SDS011;63722;48.858;21.906;2022-10-28T08:07:17;3.42;;;1.92;;
57573;SDS011;63722;48.858;21.906;2022-10-28T08:09:44;3.85;;;2.00;;
57573;SDS011;63722;48.858;21.906;2022-10-28T08:12:11;2.90;;;2.10;;
57573;SDS011;63722;48.858;21.906;2022-10-28T08:14:37;2.15;;;2.05;;
57573;SDS011;63722;48.858;21.906;2022-10-28T08:17:03;2.00;;;1.80;;
57573;SDS011;63722;48.858;21.906;2022-10-28T08:19:28;2.17;;;1.98;;
57573;SDS011;63722;48.858;21.906;2022-10-28T08:21:54;3.42;;;2.13;;
57573;SDS011;63722;48.858;21.906;2022-10-28T08:24:20;3.13;;;2.00;;
57573;SDS011;63722;48.858;21.906;2022-10-28T08:26:45;2.45;;;2.03;;
57573;SDS011;63722;48.858;21.906;2022-10-28T08:29:10;2.47;;;2.25;;
57573;SDS011;63722;48.858;21.906;2022-10-28T08:31:37;2.40;;;1.88;;
57573;SDS011;63722;48.858;21.906;2022-10-28T08:34:03;2.45;;;2.25;;
57573;SDS011;63722;48.858;21.906;2022-10-28T08:36:29;2.63;;;2.08;;
57573;SDS011;63722;48.858;21.906;2022-10-28T08:38:55;2.00;;;1.90;;
57573;SDS011;63722;48.858;21.906;2022-10-28T08:49:29;5.30;;;2.20;;
57573;SDS011;63722;48.858;21.906;2022-10-28T08:57:27;5.82;;;2.30;;
57573;SDS011;63722;48.858;21.906;2022-10-28T08:59:55;6.43;;;2.38;;
57573;SDS011;63722;48.858;21.906;2022-10-28T09:02:24;8.10;;;2.15;;
57573;SDS011;63722;48.858;21.906;2022-10-28T09:05:06;2.77;;;2.13;;
57573;SDS011;63722;48.858;21.906;2022-10-28T09:07:44;4.53;;;2.40;;
57573;SDS011;63722;48.858;21.906;2022-10-28T09:10:13;6.25;;;2.17;;
57573;SDS011;63722;48.858;21.906;2022-10-28T09:18:27;2.20;;;2.00;;
57573;SDS011;63722;48.858;21.906;2022-10-28T09:21:08;3.85;;;2.03;;
57573;SDS011;63722;48.858;21.906;2022-10-28T09:31:57;8.95;;;3.08;;
57573;SDS011;63722;48.858;21.906;2022-10-28T09:39:39;9.57;;;2.47;;
57573;SDS011;63722;48.858;21.906;2022-10-28T09:42:07;11.38;;;2.60;;
57573;SDS011;63722;48.858;21.906;2022-10-28T09:44:46;3.47;;;2.70;;
57573;SDS011;63722;48.858;21.906;2022-10-28T09:47:20;7.72;;;2.20;;
57573;SDS011;63722;48.858;21.906;2022-10-28T09:49:50;4.63;;;2.10;;
57573;SDS011;63722;48.858;21.906;2022-10-28T09:52:26;5.70;;;2.42;;
57573;SDS011;63722;48.858;21.906;2022-10-28T09:54:55;5.43;;;2.45;;
57573;SDS011;63722;48.858;21.906;2022-10-28T09:57:23;6.93;;;2.35;;
57573;SDS011;63722;48.858;21.906;2022-10-28T09:59:57;7.22;;;2.50;;
57573;SDS011;63722;48.858;21.906;2022-10-28T10:04:51;2.80;;;1.92;;
57573;SDS011;63722;48.858;21.906;2022-10-28T10:07:23;4.55;;;2.22;;
57573;SDS011;63722;48.858;21.906;2022-10-28T10:10:09;5.47;;;2.25;;
57573;SDS011;63722;48.858;21.906;2022-10-28T10:12:39;3.30;;;1.83;;
57573;SDS011;63722;48.858;21.906;2022-10-28T10:15:04;4.95;;;2.25;;
57573;SDS011;63722;48.858;21.906;2022-10-28T10:17:37;3.75;;;2.00;;
57573;SDS011;63722;48.858;21.906;2022-10-28T10:22:44;3.22;;;2.20;;
57573;SDS011;63722;48.858;21.906;2022-10-28T10:27:42;4.45;;;1.83;;
57573;SDS011;63722;48.858;21.906;2022-10-28T10:30:15;4.63;;;2.00;;
57573;SDS011;63722;48.858;21.906;2022-10-28T10:32:45;4.07;;;2.13;;
57573;SDS011;63722;48.858;21.906;2022-10-28T10:37:40;3.33;;;1.83;;
57573;SDS011;63722;48.858;21.906;2022-10-28T10:40:18;6.30;;;2.00;;
57573;SDS011;63722;48.858;21.906;2022-10-28T10:42:48;2.50;;;2.25;;
57573;SDS011;63722;48.858;21.906;2022-10-28T10:48:05;5.07;;;2.47;;
57573;SDS011;63722;48.858;21.906;2022-10-28T10:50:36;3.88;;;1.90;;
57573;SDS011;63722;48.858;21.906;2022-10-28T10:53:02;3.70;;;1.95;;
57573;SDS011;63722;48.858;21.906;2022-10-28T10:57:59;3.20;;;1.65;;
57573;SDS011;63722;48.858;21.906;2022-10-28T11:00:35;4.32;;;2.00;;
57573;SDS011;63722;48.858;21.906;2022-10-28T11:03:05;1.98;;;1.60;;
57573;SDS011;63722;48.858;21.906;2022-10-28T11:05:52;3.20;;;1.70;;
57573;SDS011;63722;48.858;21.906;2022-10-28T11:11:04;6.10;;;2.03;;
57573;SDS011;63722;48.858;21.906;2022-10-28T11:13:31;6.55;;;1.98;;
57573;SDS011;63722;48.858;21.906;2022-10-28T11:16:00;4.90;;;2.30;;
57573;SDS011;63722;48.858;21.906;2022-10-28T11:18:41;6.15;;;2.17;;
57573;SDS011;63722;48.858;21.906;2022-10-28T11:26:13;5.97;;;1.92;;
57573;SDS011;63722;48.858;21.906;2022-10-28T11:44:58;9.30;;;1.98;;
57573;SDS011;63722;48.858;21.906;2022-10-28T11:50:11;1.75;;;1.65;;
57573;SDS011;63722;48.858;21.906;2022-10-28T11:55:32;3.95;;;2.00;;
57573;SDS011;63722;48.858;21.906;2022-10-28T12:01:39;2.63;;;2.00;;
57573;SDS011;63722;48.858;21.906;2022-10-28T12:04:07;3.73;;;1.60;;
57573;SDS011;63722;48.858;21.906;2022-10-28T12:12:10;6.80;;;2.83;;
57573;SDS011;63722;48.858;21.906;2022-10-28T12:14:51;13.38;;;3.03;;
57573;SDS011;63722;48.858;21.906;2022-10-28T12:20:40;10.80;;;2.30;;
57573;SDS011;63722;48.858;21.906;2022-10-28T12:23:12;10.88;;;2.20;;
57573;SDS011;63722;48.858;21.906;2022-10-28T12:25:42;3.75;;;2.15;;
57573;SDS011;63722;48.858;21.906;2022-10-28T12:28:21;3.13;;;2.08;;
57573;SDS011;63722;48.858;21.906;2022-10-28T12:30:57;3.50;;;2.08;;
57573;SDS011;63722;48.858;21.906;2022-10-28T12:33:26;9.02;;;2.30;;
57573;SDS011;63722;48.858;21.906;2022-10-28T12:41:21;8.23;;;2.10;;
57573;SDS011;63722;48.858;21.906;2022-10-28T12:46:26;9.15;;;2.25;;
57573;SDS011;63722;48.858;21.906;2022-10-28T12:49:13;5.65;;;2.00;;
57573;SDS011;63722;48.858;21.906;2022-10-28T12:51:44;8.07;;;2.13;;
57573;SDS011;63722;48.858;21.906;2022-10-28T12:57:08;3.78;;;1.95;;
57573;SDS011;63722;48.858;21.906;2022-10-28T12:59:38;5.18;;;2.08;;
57573;SDS011;63722;48.858;21.906;2022-10-28T13:02:31;4.65;;;2.13;;
57573;SDS011;63722;48.858;21.906;2022-10-28T13:05:03;6.35;;;2.13;;
57573;SDS011;63722;48.858;21.906;2022-10-28T13:16:04;6.95;;;2.55;;
57573;SDS011;63722;48.858;21.906;2022-10-28T13:27:28;3.88;;;2.40;;
57573;SDS011;63722;48.858;21.906;2022-10-28T13:29:54;2.88;;;2.10;;
57573;SDS011;63722;48.858;21.906;2022-10-28T13:32:28;4.07;;;1.92;;
57573;SDS011;63722;48.858;21.906;2022-10-28T13:34:54;4.90;;;1.95;;
57573;SDS011;63722;48.858;21.906;2022-10-28T13:37:20;7.20;;;1.90;;
57573;SDS011;63722;48.858;21.906;2022-10-28T13:39:48;1.85;;;1.75;;
57573;SDS011;63722;48.858;21.906;2022-10-28T13:44:48;2.28;;;2.10;;
57573;SDS011;63722;48.858;21.906;2022-10-28T13:52:30;10.40;;;2.20;;
57573;SDS011;63722;48.858;21.906;2022-10-28T13:54:56;1.95;;;1.80;;
57573;SDS011;63722;48.858;21.906;2022-10-28T13:57:32;4.80;;;2.08;;
57573;SDS011;63722;48.858;21.906;2022-10-28T14:02:38;2.65;;;1.63;;
57573;SDS011;63722;48.858;21.906;2022-10-28T14:05:12;2.17;;;1.80;;
57573;SDS011;63722;48.858;21.906;2022-10-28T14:07:49;3.65;;;1.90;;
57573;SDS011;63722;48.858;21.906;2022-10-28T14:10:21;3.10;;;1.70;;
57573;SDS011;63722;48.858;21.906;2022-10-28T14:12:59;4.05;;;2.15;;
57573;SDS011;63722;48.858;21.906;2022-10-28T14:15:26;1.80;;;1.70;;
57573;SDS011;63722;48.858;21.906;2022-10-28T14:18:02;2.10;;;1.95;;
57573;SDS011;63722;48.858;21.906;2022-10-28T14:22:59;3.95;;;2.10;;
57573;SDS011;63722;48.858;21.906;2022-10-28T14:33:39;3.13;;;1.83;;
57573;SDS011;63722;48.858;21.906;2022-10-28T14:36:43;7.13;;;2.20;;
57573;SDS011;63722;48.858;21.906;2022-10-28T14:39:26;5.13;;;2.00;;
57573;SDS011;63722;48.858;21.906;2022-10-28T14:44:55;8.38;;;2.00;;
57573;SDS011;63722;48.858;21.906;2022-10-28T14:49:57;3.38;;;1.90;;
57573;SDS011;63722;48.858;21.906;2022-10-28T14:52:43;10.90;;;2.20;;
57573;SDS011;63722;48.858;21.906;2022-10-28T14:55:21;12.40;;;2.15;;
57573;SDS011;63722;48.858;21.906;2022-10-28T14:57:49;5.18;;;1.85;;
57573;SDS011;63722;48.858;21.906;2022-10-28T15:00:16;3.00;;;1.88;;
57573;SDS011;63722;48.858;21.906;2022-10-28T15:02:44;3.95;;;1.90;;
57573;SDS011;63722;48.858;21.906;2022-10-28T15:07:36;3.60;;;1.50;;
57573;SDS011;63722;48.858;21.906;2022-10-28T15:10:11;7.10;;;2.20;;
57573;SDS011;63722;48.858;21.906;2022-10-28T15:12:49;2.58;;;1.90;;
57573;SDS011;63722;48.858;21.906;2022-10-28T15:15:15;6.05;;;1.70;;
57573;SDS011;63722;48.858;21.906;2022-10-28T15:17:42;2.33;;;2.05;;
57573;SDS011;63722;48.858;21.906;2022-10-28T15:20:40;2.47;;;1.70;;
57573;SDS011;63722;48.858;21.906;2022-10-28T15:23:10;4.25;;;2.25;;
57573;SDS011;63722;48.858;21.906;2022-10-28T15:25:43;4.88;;;2.00;;
57573;SDS011;63722;48.858;21.906;2022-10-28T15:28:10;2.97;;;2.00;;
57573;SDS011;63722;48.858;21.906;2022-10-28T15:30:40;8.35;;;2.05;;
57573;SDS011;63722;48.858;21.906;2022-10-28T15:33:19;2.08;;;1.90;;
57573;SDS011;63722;48.858;21.906;2022-10-28T15:38:42;2.00;;;1.88;;
57573;SDS011;63722;48.858;21.906;2022-10-28T15:43:59;4.43;;;2.03;;
57573;SDS011;63722;48.858;21.906;2022-10-28T15:46:25;2.13;;;1.90;;
57573;SDS011;63722;48.858;21.906;2022-10-28T15:48:52;3.05;;;2.03;;
57573;SDS011;63722;48.858;21.906;2022-10-28T15:51:19;2.40;;;2.00;;
57573;SDS011;63722;48.858;21.906;2022-10-28T15:53:51;3.33;;;1.88;;
57573;SDS011;63722;48.858;21.906;2022-10-28T15:56:22;2.45;;;2.10;;
57573;SDS011;63722;48.858;21.906;2022-10-28T16:03:54;5.70;;;1.90;;
57573;SDS011;63722;48.858;21.906;2022-10-28T16:09:00;3.15;;;1.90;;
57573;SDS011;63722;48.858;21.906;2022-10-28T16:11:29;1.60;;;1.50;;
57573;SDS011;63722;48.858;21.906;2022-10-28T16:13:55;1.80;;;1.48;;
57573;SDS011;63722;48.858;21.906;2022-10-28T16:16:31;2.30;;;2.10;;
57573;SDS011;63722;48.858;21.906;2022-10-28T16:21:32;1.88;;;1.77;;
57573;SDS011;63722;48.858;21.906;2022-10-28T16:23:58;1.60;;;1.50;;
57573;SDS011;63722;48.858;21.906;2022-10-28T16:26:24;3.50;;;1.65;;
57573;SDS011;63722;48.858;21.906;2022-10-28T16:28:50;1.67;;;1.50;;
57573;SDS011;63722;48.858;21.906;2022-10-28T16:31:16;2.13;;;1.77;;
57573;SDS011;63722;48.858;21.906;2022-10-28T16:33:43;4.20;;;1.83;;
57573;SDS011;63722;48.858;21.906;2022-10-28T16:36:09;5.05;;;1.85;;
57573;SDS011;63722;48.858;21.906;2022-10-28T16:38:35;2.08;;;1.88;;
57573;SDS011;63722;48.858;21.906;2022-10-28T16:41:01;2.15;;;1.92;;
57573;SDS011;63722;48.858;21.906;2022-10-28T16:43:28;1.80;;;1.70;;
57573;SDS011;63722;48.858;21.906;2022-10-28T16:45:55;3.08;;;2.15;;
57573;SDS011;63722;48.858;21.906;2022-10-28T16:48:23;6.07;;;2.05;;
57573;SDS011;63722;48.858;21.906;2022-10-28T16:50:51;1.80;;;1.70;;
57573;SDS011;63722;48.858;21.906;2022-10-28T16:53:18;1.80;;;1.55;;
57573;SDS011;63722;48.858;21.906;2022-10-28T16:55:44;2.78;;;2.00;;
57573;SDS011;63722;48.858;21.906;2022-10-28T16:58:10;1.77;;;1.67;;
57573;SDS011;63722;48.858;21.906;2022-10-28T17:00:35;2.28;;;1.83;;
57573;SDS011;63722;48.858;21.906;2022-10-28T17:03:02;2.10;;;2.00;;
57573;SDS011;63722;48.858;21.906;2022-10-28T17:05:27;2.08;;;1.83;;
57573;SDS011;63722;48.858;21.906;2022-10-28T17:07:53;2.45;;;1.90;;
57573;SDS011;63722;48.858;21.906;2022-10-28T17:10:20;2.67;;;2.03;;
57573;SDS011;63722;48.858;21.906;2022-10-28T17:12:46;1.90;;;1.80;;
57573;SDS011;63722;48.858;21.906;2022-10-28T17:15:12;2.53;;;2.20;;
57573;SDS011;63722;48.858;21.906;2022-10-28T17:17:37;2.08;;;1.88;;
57573;SDS011;63722;48.858;21.906;2022-10-28T17:20:02;1.80;;;1.70;;
57573;SDS011;63722;48.858;21.906;2022-10-28T17:22:28;3.08;;;1.70;;
57573;SDS011;63722;48.858;21.906;2022-10-28T17:24:54;3.33;;;1.90;;
57573;SDS011;63722;48.858;21.906;2022-10-28T17:27:19;2.72;;;1.83;;
57573;SDS011;63722;48.858;21.906;2022-10-28T17:29:44;1.75;;;1.65;;
57573;SDS011;63722;48.858;21.906;2022-10-28T17:32:10;1.70;;;1.60;;
57573;SDS011;63722;48.858;21.906;2022-10-28T17:34:35;2.25;;;2.05;;
57573;SDS011;63722;48.858;21.906;2022-10-28T17:37:01;1.80;;;1.70;;
57573;SDS011;63722;48.858;21.906;2022-10-28T17:39:26;3.97;;;1.95;;
57573;SDS011;63722;48.858;21.906;2022-10-28T17:41:52;1.90;;;1.80;;
57573;SDS011;63722;48.858;21.906;2022-10-28T17:44:17;2.30;;;1.70;;
57573;SDS011;63722;48.858;21.906;2022-10-28T17:46:43;2.00;;;1.90;;